AFR98 KMCO-LFPG
Flight info
| Callsign | AFR98 |
|---|---|
| Flight time | N/A |
| Altitude | 37000 |
| Route | JEEMY4 PAINN SHRKS BERTT GURGE RAYVO Q87 NOWAE FAK BOOYA Q34 RBV Q22 LLUND BIZEX Q133 CAM BEEHS JIGZY TAFFY N693A NEEKO 5350N 5440N 5430N 5420N DOGAL BEXET MORAG NUCHU L18 MID Y803 SFD UM605 BIBAX |
| Aircraft | A359/H-SDE2E3GHIJ3J4J5LM1ORWXY/LB1D1 |
Departure
| Time | 2026-04-25 12:36 |
|---|---|
| Airport | Orlando International Airport (KMCO) |
Arrival
| Time | N/A |
|---|---|
| Airport | Charles de Gaulle International Airport (LFPG) |
| Time | Latitude | Longitude | Altitude | Speed | Heading |
|---|---|---|---|---|---|
| 2026-04-25 12:01 | 28.42911 | -81.30006 | 109 ft | 0 kts | 219° |
| 2026-04-25 12:02 | 28.42890 | -81.30093 | 107 ft | 0 kts | 146° |
| 2026-04-25 12:02 | 28.42853 | -81.30119 | 106 ft | 0 kts | 141° |
| 2026-04-25 12:03 | 28.42849 | -81.30115 | 106 ft | 0 kts | 141° |
| 2026-04-25 12:14 | 28.42849 | -81.30116 | 109 ft | 1 kts | 141° |
| 2026-04-25 12:14 | 28.42868 | -81.30131 | 106 ft | 4 kts | 156° |
| 2026-04-25 12:14 | 28.42890 | -81.30138 | 108 ft | 2 kts | 176° |
| 2026-04-25 12:15 | 28.42916 | -81.30140 | 108 ft | 4 kts | 174° |
| 2026-04-25 12:15 | 28.42939 | -81.30146 | 106 ft | 4 kts | 123° |
| 2026-04-25 12:15 | 28.42942 | -81.30149 | 106 ft | 1 kts | 58° |
| 2026-04-25 12:15 | 28.42940 | -81.30152 | 106 ft | 0 kts | 58° |
| 2026-04-25 12:19 | 28.42943 | -81.30147 | 106 ft | 4 kts | 58° |
| 2026-04-25 12:19 | 28.42977 | -81.30060 | 108 ft | 11 kts | 79° |
| 2026-04-25 12:19 | 28.42965 | -81.29974 | 107 ft | 12 kts | 114° |
| 2026-04-25 12:20 | 28.42926 | -81.29902 | 107 ft | 7 kts | 118° |
| 2026-04-25 12:20 | 28.42920 | -81.29885 | 107 ft | 0 kts | 110° |
| 2026-04-25 12:20 | 28.42915 | -81.29867 | 107 ft | 6 kts | 104° |
| 2026-04-25 12:21 | 28.42912 | -81.29799 | 107 ft | 10 kts | 90° |
| 2026-04-25 12:21 | 28.42901 | -81.29729 | 108 ft | 8 kts | 121° |
| 2026-04-25 12:21 | 28.42841 | -81.29705 | 109 ft | 12 kts | 177° |
| 2026-04-25 12:21 | 28.42744 | -81.29705 | 106 ft | 16 kts | 180° |
| 2026-04-25 12:22 | 28.42625 | -81.29704 | 105 ft | 18 kts | 179° |
| 2026-04-25 12:22 | 28.42505 | -81.29702 | 108 ft | 17 kts | 179° |
| 2026-04-25 12:22 | 28.42385 | -81.29701 | 105 ft | 18 kts | 179° |
| 2026-04-25 12:22 | 28.42288 | -81.29723 | 106 ft | 11 kts | 233° |
| 2026-04-25 12:23 | 28.42281 | -81.29805 | 109 ft | 11 kts | 269° |
| 2026-04-25 12:23 | 28.42280 | -81.29905 | 111 ft | 15 kts | 269° |
| 2026-04-25 12:23 | 28.42279 | -81.30050 | 110 ft | 22 kts | 269° |
| 2026-04-25 12:23 | 28.42277 | -81.30235 | 108 ft | 24 kts | 269° |
| 2026-04-25 12:24 | 28.42272 | -81.30426 | 107 ft | 24 kts | 266° |
| 2026-04-25 12:24 | 28.42259 | -81.30610 | 108 ft | 23 kts | 265° |
| 2026-04-25 12:24 | 28.42245 | -81.30794 | 107 ft | 24 kts | 265° |
| 2026-04-25 12:24 | 28.42235 | -81.30988 | 106 ft | 25 kts | 269° |
| 2026-04-25 12:25 | 28.42257 | -81.31184 | 105 ft | 26 kts | 280° |
| 2026-04-25 12:25 | 28.42269 | -81.31384 | 106 ft | 25 kts | 269° |
| 2026-04-25 12:25 | 28.42266 | -81.31580 | 108 ft | 25 kts | 269° |
| 2026-04-25 12:25 | 28.42265 | -81.31771 | 112 ft | 23 kts | 269° |
| 2026-04-25 12:26 | 28.42264 | -81.31931 | 113 ft | 15 kts | 275° |
| 2026-04-25 12:26 | 28.42337 | -81.31986 | 112 ft | 14 kts | 359° |
| 2026-04-25 12:26 | 28.42445 | -81.31988 | 113 ft | 18 kts | 359° |
| 2026-04-25 12:26 | 28.42584 | -81.31989 | 113 ft | 21 kts | 360° |
| 2026-04-25 12:27 | 28.42732 | -81.31991 | 112 ft | 22 kts | 359° |
| 2026-04-25 12:27 | 28.42893 | -81.31992 | 106 ft | 24 kts | 360° |
| 2026-04-25 12:27 | 28.43066 | -81.31994 | 107 ft | 25 kts | 0° |
| 2026-04-25 12:27 | 28.43243 | -81.31995 | 107 ft | 26 kts | 359° |
| 2026-04-25 12:28 | 28.43407 | -81.31997 | 106 ft | 21 kts | 359° |
| 2026-04-25 12:28 | 28.43550 | -81.31999 | 110 ft | 20 kts | 359° |
| 2026-04-25 12:28 | 28.43688 | -81.32000 | 110 ft | 20 kts | 359° |
| 2026-04-25 12:28 | 28.43823 | -81.32002 | 113 ft | 19 kts | 359° |
| 2026-04-25 12:29 | 28.43954 | -81.32003 | 114 ft | 19 kts | 359° |
| 2026-04-25 12:29 | 28.44086 | -81.32005 | 114 ft | 19 kts | 359° |
| 2026-04-25 12:29 | 28.44226 | -81.32006 | 112 ft | 21 kts | 359° |
| 2026-04-25 12:29 | 28.44374 | -81.32008 | 111 ft | 22 kts | 360° |
| 2026-04-25 12:30 | 28.44502 | -81.32009 | 108 ft | 13 kts | 360° |
| 2026-04-25 12:30 | 28.44596 | -81.32010 | 107 ft | 10 kts | 359° |
| 2026-04-25 12:30 | 28.44637 | -81.32011 | 107 ft | 0 kts | 359° |
| 2026-04-25 12:31 | 28.44643 | -81.32011 | 107 ft | 3 kts | 359° |
| 2026-04-25 12:31 | 28.44685 | -81.32016 | 106 ft | 8 kts | 342° |
| 2026-04-25 12:31 | 28.44703 | -81.32033 | 105 ft | 1 kts | 309° |
| 2026-04-25 12:32 | 28.44710 | -81.32047 | 107 ft | 4 kts | 297° |
| 2026-04-25 12:32 | 28.44716 | -81.32088 | 106 ft | 6 kts | 271° |
| 2026-04-25 12:32 | 28.44715 | -81.32099 | 106 ft | 0 kts | 268° |
| 2026-04-25 12:33 | 28.44715 | -81.32102 | 106 ft | 4 kts | 268° |
| 2026-04-25 12:33 | 28.44712 | -81.32189 | 107 ft | 13 kts | 262° |
| 2026-04-25 12:33 | 28.44662 | -81.32229 | 107 ft | 7 kts | 180° |
| 2026-04-25 12:34 | 28.44658 | -81.32229 | 107 ft | 0 kts | 179° |
| 2026-04-25 12:35 | 28.44649 | -81.32229 | 108 ft | 9 kts | 179° |
| 2026-04-25 12:36 | 28.44376 | -81.32226 | 110 ft | 71 kts | 179° |
| 2026-04-25 12:36 | 28.43688 | -81.32219 | 112 ft | 125 kts | 179° |
| 2026-04-25 12:36 | 28.42652 | -81.32208 | 149 ft | 167 kts | 179° |
| 2026-04-25 12:36 | 28.41542 | -81.32191 | 834 ft | 156 kts | 179° |
| 2026-04-25 12:37 | 28.40447 | -81.32252 | 1373 ft | 159 kts | 188° |
| 2026-04-25 12:37 | 28.39372 | -81.32572 | 1844 ft | 166 kts | 202° |
| 2026-04-25 12:37 | 28.38285 | -81.33182 | 2034 ft | 185 kts | 209° |
| 2026-04-25 12:37 | 28.37068 | -81.33889 | 2241 ft | 206 kts | 205° |
| 2026-04-25 12:38 | 28.35724 | -81.34634 | 2465 ft | 228 kts | 208° |
| 2026-04-25 12:38 | 28.34462 | -81.35837 | 2733 ft | 248 kts | 231° |
| 2026-04-25 12:38 | 28.33748 | -81.37654 | 3210 ft | 258 kts | 257° |
| 2026-04-25 12:38 | 28.33536 | -81.39021 | 3593 ft | 262 kts | 262° |
| 2026-04-25 12:39 | 28.33238 | -81.41748 | 4428 ft | 266 kts | 263° |
| 2026-04-25 12:39 | 28.33088 | -81.43167 | 4870 ft | 268 kts | 263° |
| 2026-04-25 12:39 | 28.32863 | -81.45259 | 5503 ft | 270 kts | 263° |
| 2026-04-25 12:39 | 28.32641 | -81.47390 | 6170 ft | 274 kts | 265° |
| 2026-04-25 12:40 | 28.32854 | -81.49542 | 6695 ft | 276 kts | 290° |
| 2026-04-25 12:40 | 28.33834 | -81.51363 | 6947 ft | 274 kts | 314° |
| 2026-04-25 12:40 | 28.35270 | -81.52790 | 6997 ft | 275 kts | 322° |
| 2026-04-25 12:40 | 28.36803 | -81.54110 | 6996 ft | 276 kts | 323° |
| 2026-04-25 12:41 | 28.38341 | -81.55408 | 6992 ft | 275 kts | 323° |
| 2026-04-25 12:41 | 28.39971 | -81.56554 | 6979 ft | 276 kts | 339° |
| 2026-04-25 12:41 | 28.41827 | -81.57049 | 7280 ft | 278 kts | 351° |
| 2026-04-25 12:41 | 28.43758 | -81.57309 | 7982 ft | 279 kts | 353° |
| 2026-04-25 12:42 | 28.45694 | -81.57533 | 8747 ft | 280 kts | 353° |
| 2026-04-25 12:42 | 28.46983 | -81.57673 | 9265 ft | 280 kts | 353° |
| 2026-04-25 12:42 | 28.49600 | -81.57939 | 10208 ft | 284 kts | 353° |
| 2026-04-25 12:42 | 28.51604 | -81.58018 | 10522 ft | 302 kts | 2° |
| 2026-04-25 12:43 | 28.53733 | -81.57553 | 10813 ft | 320 kts | 14° |
| 2026-04-25 12:43 | 28.55917 | -81.56780 | 11103 ft | 336 kts | 16° |
| 2026-04-25 12:43 | 28.60538 | -81.54994 | 11762 ft | 361 kts | 17° |
| 2026-04-25 12:44 | 28.62948 | -81.54047 | 12312 ft | 366 kts | 17° |
| 2026-04-25 12:44 | 28.65342 | -81.53105 | 12901 ft | 369 kts | 17° |
| 2026-04-25 12:44 | 28.70240 | -81.51179 | 14018 ft | 376 kts | 17° |
| 2026-04-25 12:45 | 28.72734 | -81.50197 | 14463 ft | 380 kts | 17° |
| 2026-04-25 12:45 | 28.75251 | -81.49205 | 14930 ft | 383 kts | 17° |
| 2026-04-25 12:45 | 28.80306 | -81.47211 | 15885 ft | 390 kts | 17° |
| 2026-04-25 12:46 | 28.82891 | -81.46191 | 16391 ft | 393 kts | 17° |
| 2026-04-25 12:46 | 28.85494 | -81.45163 | 16888 ft | 396 kts | 17° |
| 2026-04-25 12:46 | 28.88079 | -81.44142 | 17385 ft | 400 kts | 17° |
| 2026-04-25 12:46 | 28.90722 | -81.43097 | 17899 ft | 403 kts | 17° |
| 2026-04-25 12:47 | 28.93401 | -81.42067 | 18381 ft | 406 kts | 14° |
| 2026-04-25 12:47 | 28.96180 | -81.41520 | 18820 ft | 405 kts | 359° |
| 2026-04-25 12:47 | 28.98959 | -81.41664 | 19308 ft | 404 kts | 353° |
| 2026-04-25 12:47 | 29.01755 | -81.41976 | 19766 ft | 407 kts | 352° |
| 2026-04-25 12:48 | 29.04584 | -81.42305 | 20262 ft | 409 kts | 352° |
| 2026-04-25 12:48 | 29.07432 | -81.42631 | 20741 ft | 411 kts | 352° |
| 2026-04-25 12:48 | 29.10256 | -81.42951 | 21205 ft | 414 kts | 352° |
| 2026-04-25 12:48 | 29.13143 | -81.43250 | 21682 ft | 417 kts | 353° |
| 2026-04-25 12:49 | 29.16045 | -81.43518 | 22169 ft | 419 kts | 353° |
| 2026-04-25 12:49 | 29.18968 | -81.43788 | 22656 ft | 422 kts | 353° |
| 2026-04-25 12:49 | 29.21873 | -81.44060 | 23142 ft | 425 kts | 353° |
| 2026-04-25 12:49 | 29.24834 | -81.44339 | 23607 ft | 427 kts | 353° |
| 2026-04-25 12:50 | 29.27820 | -81.44621 | 24005 ft | 431 kts | 353° |
| 2026-04-25 12:50 | 29.30824 | -81.44907 | 24385 ft | 434 kts | 353° |
| 2026-04-25 12:50 | 29.33845 | -81.45194 | 24808 ft | 436 kts | 353° |
| 2026-04-25 12:50 | 29.36845 | -81.45479 | 25218 ft | 438 kts | 354° |
| 2026-04-25 12:51 | 29.39905 | -81.45770 | 25625 ft | 440 kts | 354° |
| 2026-04-25 12:51 | 29.42970 | -81.46062 | 26032 ft | 442 kts | 354° |
| 2026-04-25 12:51 | 29.46021 | -81.46354 | 26430 ft | 445 kts | 354° |
| 2026-04-25 12:51 | 29.49122 | -81.46650 | 26819 ft | 447 kts | 354° |
| 2026-04-25 12:52 | 29.52233 | -81.46947 | 27203 ft | 449 kts | 354° |
| 2026-04-25 12:52 | 29.55372 | -81.47248 | 27593 ft | 452 kts | 354° |
| 2026-04-25 12:52 | 29.58482 | -81.47546 | 27978 ft | 454 kts | 354° |
| 2026-04-25 12:52 | 29.61643 | -81.47836 | 28363 ft | 456 kts | 355° |
| 2026-04-25 12:53 | 29.64823 | -81.48121 | 28738 ft | 458 kts | 355° |
| 2026-04-25 12:53 | 29.68014 | -81.48408 | 29109 ft | 460 kts | 355° |
| 2026-04-25 12:53 | 29.71185 | -81.48694 | 29464 ft | 462 kts | 355° |
| 2026-04-25 12:53 | 29.74412 | -81.48986 | 29821 ft | 464 kts | 355° |
| 2026-04-25 12:54 | 29.77626 | -81.49278 | 30142 ft | 466 kts | 355° |
| 2026-04-25 12:54 | 29.80879 | -81.49573 | 30414 ft | 469 kts | 355° |
| 2026-04-25 12:54 | 29.84153 | -81.49871 | 30661 ft | 471 kts | 355° |
| 2026-04-25 12:54 | 29.87392 | -81.50206 | 30902 ft | 473 kts | 353° |
| 2026-04-25 12:55 | 29.90632 | -81.50928 | 31142 ft | 475 kts | 345° |
| 2026-04-25 12:55 | 29.92795 | -81.51604 | 31291 ft | 477 kts | 344° |
| 2026-04-25 12:55 | 29.97025 | -81.53064 | 31639 ft | 479 kts | 343° |
| 2026-04-25 12:55 | 30.00205 | -81.54221 | 31993 ft | 478 kts | 342° |
| 2026-04-25 12:56 | 30.03376 | -81.55387 | 32320 ft | 477 kts | 342° |
| 2026-04-25 12:56 | 30.06533 | -81.56544 | 32641 ft | 476 kts | 342° |
| 2026-04-25 12:56 | 30.09666 | -81.57684 | 32941 ft | 476 kts | 342° |
| 2026-04-25 12:56 | 30.12841 | -81.58832 | 33250 ft | 475 kts | 343° |
| 2026-04-25 12:57 | 30.16003 | -81.59970 | 33600 ft | 474 kts | 343° |
| 2026-04-25 12:57 | 30.19115 | -81.61087 | 33946 ft | 472 kts | 343° |
| 2026-04-25 12:57 | 30.22254 | -81.62213 | 34190 ft | 472 kts | 343° |
| 2026-04-25 12:57 | 30.25401 | -81.63342 | 34453 ft | 471 kts | 343° |
| 2026-04-25 12:58 | 30.28536 | -81.64467 | 34727 ft | 469 kts | 343° |
| 2026-04-25 12:58 | 30.31617 | -81.65575 | 34945 ft | 469 kts | 343° |
| 2026-04-25 12:58 | 30.37869 | -81.67826 | 34966 ft | 470 kts | 343° |
| 2026-04-25 12:59 | 30.44098 | -81.70071 | 34964 ft | 470 kts | 343° |
| 2026-04-25 12:59 | 30.50360 | -81.72332 | 34955 ft | 470 kts | 343° |
| 2026-04-25 13:00 | 30.55574 | -81.74217 | 34965 ft | 470 kts | 342° |
| 2026-04-25 13:00 | 30.63043 | -81.76113 | 34967 ft | 470 kts | 356° |
| 2026-04-25 13:01 | 30.69549 | -81.75810 | 34961 ft | 471 kts | 4° |
| 2026-04-25 13:01 | 30.76058 | -81.75025 | 34971 ft | 470 kts | 6° |
| 2026-04-25 13:02 | 30.82543 | -81.74168 | 34970 ft | 470 kts | 6° |
| 2026-04-25 13:02 | 30.89071 | -81.73325 | 35169 ft | 470 kts | 5° |
| 2026-04-25 13:03 | 30.92296 | -81.72917 | 35430 ft | 469 kts | 5° |
| 2026-04-25 13:03 | 30.95548 | -81.72508 | 35685 ft | 467 kts | 5° |
| 2026-04-25 13:03 | 30.98738 | -81.72108 | 35927 ft | 466 kts | 5° |
| 2026-04-25 13:03 | 31.01968 | -81.71704 | 36170 ft | 464 kts | 5° |
| 2026-04-25 13:04 | 31.05190 | -81.71300 | 36382 ft | 463 kts | 5° |
| 2026-04-25 13:04 | 31.08362 | -81.70902 | 36568 ft | 463 kts | 5° |
| 2026-04-25 13:04 | 31.11575 | -81.70498 | 36752 ft | 462 kts | 5° |
| 2026-04-25 13:04 | 31.14781 | -81.70071 | 36917 ft | 462 kts | 7° |
| 2026-04-25 13:05 | 31.21086 | -81.68276 | 36965 ft | 469 kts | 14° |
| 2026-04-25 13:05 | 31.27322 | -81.66046 | 36964 ft | 470 kts | 15° |
| 2026-04-25 13:06 | 31.33543 | -81.63743 | 36969 ft | 469 kts | 15° |
| 2026-04-25 13:06 | 31.39794 | -81.61435 | 36968 ft | 469 kts | 15° |
| 2026-04-25 13:07 | 31.45991 | -81.59160 | 36969 ft | 469 kts | 15° |
| 2026-04-25 13:07 | 31.52245 | -81.56866 | 36970 ft | 469 kts | 15° |
| 2026-04-25 13:08 | 31.58454 | -81.54586 | 36961 ft | 469 kts | 15° |
| 2026-04-25 13:08 | 31.64665 | -81.52301 | 36953 ft | 469 kts | 15° |
| 2026-04-25 13:09 | 31.70916 | -81.49998 | 36948 ft | 469 kts | 15° |
| 2026-04-25 13:09 | 31.77153 | -81.47697 | 36946 ft | 469 kts | 15° |
| 2026-04-25 13:10 | 31.83361 | -81.45404 | 36943 ft | 470 kts | 15° |
| 2026-04-25 13:10 | 31.89623 | -81.43087 | 36943 ft | 471 kts | 15° |
| 2026-04-25 13:11 | 31.95878 | -81.40768 | 36945 ft | 471 kts | 15° |
| 2026-04-25 13:11 | 32.02100 | -81.38460 | 36952 ft | 471 kts | 15° |
| 2026-04-25 13:12 | 32.08363 | -81.36132 | 36954 ft | 471 kts | 15° |
| 2026-04-25 13:12 | 32.13579 | -81.34192 | 36952 ft | 472 kts | 15° |
| 2026-04-25 13:13 | 32.20876 | -81.31473 | 36952 ft | 472 kts | 15° |
| 2026-04-25 13:13 | 32.27112 | -81.29145 | 36951 ft | 472 kts | 15° |
| 2026-04-25 13:14 | 32.33398 | -81.26795 | 36950 ft | 471 kts | 15° |
| 2026-04-25 13:14 | 32.39620 | -81.24467 | 36944 ft | 471 kts | 15° |
| 2026-04-25 13:15 | 32.45856 | -81.22010 | 36941 ft | 472 kts | 20° |
| 2026-04-25 13:15 | 32.51526 | -81.18087 | 36944 ft | 477 kts | 34° |
| 2026-04-25 13:16 | 32.56758 | -81.13194 | 36938 ft | 478 kts | 37° |
| 2026-04-25 13:16 | 32.61884 | -81.08166 | 36939 ft | 480 kts | 37° |
| 2026-04-25 13:17 | 32.67021 | -81.03117 | 36940 ft | 481 kts | 37° |
| 2026-04-25 13:17 | 32.72203 | -80.98052 | 36938 ft | 481 kts | 37° |
| 2026-04-25 13:18 | 32.77354 | -80.93026 | 36941 ft | 481 kts | 37° |
| 2026-04-25 13:18 | 32.82534 | -80.87965 | 36945 ft | 479 kts | 37° |
| 2026-04-25 13:19 | 32.87671 | -80.82939 | 36950 ft | 480 kts | 37° |
| 2026-04-25 13:19 | 32.91103 | -80.79576 | 36950 ft | 481 kts | 37° |
| 2026-04-25 13:20 | 32.97961 | -80.72843 | 36951 ft | 481 kts | 37° |
| 2026-04-25 13:20 | 33.03140 | -80.67749 | 36954 ft | 481 kts | 37° |
| 2026-04-25 13:21 | 33.08276 | -80.62689 | 36939 ft | 481 kts | 37° |
| 2026-04-25 13:21 | 33.13445 | -80.57590 | 36932 ft | 481 kts | 37° |
| 2026-04-25 13:22 | 33.18583 | -80.52513 | 36935 ft | 480 kts | 37° |
| 2026-04-25 13:23 | 33.26286 | -80.44889 | 36929 ft | 479 kts | 37° |
| 2026-04-25 13:23 | 33.31435 | -80.39782 | 36935 ft | 479 kts | 37° |
| 2026-04-25 13:24 | 33.36552 | -80.34698 | 36934 ft | 481 kts | 38° |
| 2026-04-25 13:24 | 33.41707 | -80.29569 | 36931 ft | 481 kts | 38° |
| 2026-04-25 13:25 | 33.46834 | -80.24458 | 36934 ft | 481 kts | 38° |
| 2026-04-25 13:25 | 33.51980 | -80.19320 | 36935 ft | 481 kts | 38° |
| 2026-04-25 13:26 | 33.57128 | -80.14173 | 36934 ft | 481 kts | 38° |
| 2026-04-25 13:26 | 33.62251 | -80.09050 | 36931 ft | 481 kts | 37° |
| 2026-04-25 13:27 | 33.67852 | -80.04762 | 36929 ft | 479 kts | 26° |
| 2026-04-25 13:27 | 33.73764 | -80.01064 | 36933 ft | 479 kts | 25° |
| 2026-04-25 13:28 | 33.78718 | -79.98070 | 36921 ft | 479 kts | 25° |
| 2026-04-25 13:28 | 33.84696 | -79.94459 | 36921 ft | 480 kts | 25° |
| 2026-04-25 13:29 | 33.90644 | -79.90841 | 36921 ft | 481 kts | 25° |
| 2026-04-25 13:29 | 33.96626 | -79.87184 | 36921 ft | 481 kts | 25° |
| 2026-04-25 13:30 | 34.05597 | -79.81688 | 36928 ft | 481 kts | 25° |
| 2026-04-25 13:31 | 34.14552 | -79.76187 | 36923 ft | 482 kts | 25° |
| 2026-04-25 13:31 | 34.20521 | -79.72521 | 36924 ft | 482 kts | 25° |
| 2026-04-25 13:32 | 34.26478 | -79.68849 | 36923 ft | 482 kts | 25° |
| 2026-04-25 13:32 | 34.32473 | -79.65145 | 36923 ft | 483 kts | 25° |
| 2026-04-25 13:33 | 34.38490 | -79.61428 | 36921 ft | 485 kts | 25° |
| 2026-04-25 13:33 | 34.44488 | -79.57725 | 36916 ft | 485 kts | 25° |
| 2026-04-25 13:34 | 34.50478 | -79.54003 | 36916 ft | 485 kts | 25° |
| 2026-04-25 13:34 | 34.56537 | -79.50231 | 36917 ft | 485 kts | 25° |
| 2026-04-25 13:35 | 34.62416 | -79.46332 | 36920 ft | 487 kts | 27° |
| 2026-04-25 13:35 | 34.68298 | -79.42298 | 36928 ft | 487 kts | 27° |
| 2026-04-25 13:36 | 34.74218 | -79.38257 | 36925 ft | 486 kts | 27° |
| 2026-04-25 13:36 | 34.80137 | -79.34239 | 36926 ft | 486 kts | 26° |
| 2026-04-25 13:37 | 34.86040 | -79.30239 | 36926 ft | 487 kts | 26° |
| 2026-04-25 13:37 | 34.91984 | -79.26205 | 36920 ft | 488 kts | 26° |
| 2026-04-25 13:38 | 34.97880 | -79.22196 | 36913 ft | 488 kts | 26° |
| 2026-04-25 13:38 | 35.03823 | -79.18145 | 36901 ft | 488 kts | 26° |
| 2026-04-25 13:39 | 35.09732 | -79.14113 | 36897 ft | 489 kts | 26° |
| 2026-04-25 13:39 | 35.15684 | -79.10043 | 36906 ft | 489 kts | 26° |
| 2026-04-25 13:40 | 35.21590 | -79.05999 | 36906 ft | 489 kts | 26° |
| 2026-04-25 13:40 | 35.27540 | -79.01916 | 36905 ft | 489 kts | 26° |
| 2026-04-25 13:41 | 35.33456 | -78.97852 | 36901 ft | 489 kts | 26° |
| 2026-04-25 13:41 | 35.39413 | -78.93751 | 36899 ft | 490 kts | 26° |
| 2026-04-25 13:42 | 35.45347 | -78.89660 | 36905 ft | 490 kts | 26° |
| 2026-04-25 13:42 | 35.51281 | -78.85561 | 36908 ft | 490 kts | 26° |
| 2026-04-25 13:43 | 35.57235 | -78.81442 | 36905 ft | 490 kts | 26° |
| 2026-04-25 13:43 | 35.63175 | -78.77330 | 36902 ft | 490 kts | 26° |
| 2026-04-25 13:44 | 35.69088 | -78.73226 | 36899 ft | 490 kts | 26° |
| 2026-04-25 13:44 | 35.75004 | -78.69107 | 36893 ft | 491 kts | 26° |
| 2026-04-25 13:45 | 35.80969 | -78.64948 | 36891 ft | 491 kts | 26° |
| 2026-04-25 13:45 | 35.86920 | -78.60794 | 36899 ft | 490 kts | 26° |
| 2026-04-25 13:46 | 35.92834 | -78.56660 | 36901 ft | 490 kts | 26° |
| 2026-04-25 13:46 | 35.98795 | -78.52485 | 36909 ft | 491 kts | 26° |
| 2026-04-25 13:47 | 36.04733 | -78.48320 | 36909 ft | 492 kts | 26° |
| 2026-04-25 13:47 | 36.10670 | -78.44147 | 36912 ft | 492 kts | 26° |
| 2026-04-25 13:48 | 36.16629 | -78.39952 | 36910 ft | 492 kts | 26° |
| 2026-04-25 13:48 | 36.22566 | -78.35766 | 36889 ft | 493 kts | 26° |
| 2026-04-25 13:49 | 36.28551 | -78.31537 | 36888 ft | 494 kts | 26° |
| 2026-04-25 13:49 | 36.34494 | -78.27330 | 36886 ft | 493 kts | 26° |
| 2026-04-25 13:50 | 36.40668 | -78.24022 | 36885 ft | 486 kts | 14° |
| 2026-04-25 13:50 | 36.47114 | -78.21549 | 36889 ft | 486 kts | 12° |
| 2026-04-25 13:51 | 36.53595 | -78.19222 | 36877 ft | 486 kts | 12° |
| 2026-04-25 13:51 | 36.60103 | -78.16894 | 36943 ft | 486 kts | 12° |
| 2026-04-25 13:52 | 36.66622 | -78.14539 | 36948 ft | 486 kts | 12° |
| 2026-04-25 13:52 | 36.73108 | -78.12181 | 36943 ft | 487 kts | 12° |
| 2026-04-25 13:53 | 36.79629 | -78.09804 | 36934 ft | 487 kts | 12° |
| 2026-04-25 13:53 | 36.86111 | -78.07437 | 36920 ft | 488 kts | 12° |
| 2026-04-25 13:54 | 36.92624 | -78.05056 | 36881 ft | 489 kts | 11° |
| 2026-04-25 13:54 | 36.99162 | -78.02662 | 36887 ft | 489 kts | 11° |
| 2026-04-25 13:55 | 37.05679 | -78.00270 | 36885 ft | 489 kts | 11° |
| 2026-04-25 13:55 | 37.12229 | -77.97861 | 36896 ft | 490 kts | 11° |
| 2026-04-25 13:56 | 37.18776 | -77.95450 | 36889 ft | 491 kts | 11° |
| 2026-04-25 13:56 | 37.25321 | -77.93034 | 36880 ft | 490 kts | 11° |
| 2026-04-25 13:57 | 37.31823 | -77.90631 | 36875 ft | 489 kts | 11° |
| 2026-04-25 13:57 | 37.38377 | -77.88205 | 36881 ft | 490 kts | 11° |
| 2026-04-25 13:58 | 37.44934 | -77.85773 | 36883 ft | 490 kts | 11° |
| 2026-04-25 13:58 | 37.51447 | -77.83337 | 36888 ft | 491 kts | 12° |
| 2026-04-25 13:59 | 37.57881 | -77.80207 | 36912 ft | 495 kts | 16° |
| 2026-04-25 13:59 | 37.64245 | -77.76888 | 36912 ft | 497 kts | 17° |
| 2026-04-25 14:00 | 37.70614 | -77.73520 | 36913 ft | 497 kts | 17° |
| 2026-04-25 14:00 | 37.77020 | -77.70133 | 36916 ft | 497 kts | 17° |
| 2026-04-25 14:01 | 37.83386 | -77.66769 | 36924 ft | 497 kts | 17° |
| 2026-04-25 14:01 | 37.89765 | -77.63396 | 36923 ft | 497 kts | 17° |
| 2026-04-25 14:02 | 37.96172 | -77.60002 | 36922 ft | 497 kts | 17° |
| 2026-04-25 14:02 | 38.02520 | -77.56631 | 36924 ft | 496 kts | 17° |
| 2026-04-25 14:03 | 38.08903 | -77.53235 | 36934 ft | 495 kts | 17° |
| 2026-04-25 14:03 | 38.15270 | -77.49843 | 36940 ft | 495 kts | 17° |
| 2026-04-25 14:04 | 38.21596 | -77.46467 | 36943 ft | 495 kts | 17° |
| 2026-04-25 14:04 | 38.27952 | -77.43066 | 36945 ft | 496 kts | 17° |
| 2026-04-25 14:05 | 38.34284 | -77.39673 | 36943 ft | 496 kts | 17° |
| 2026-04-25 14:05 | 38.40416 | -77.35487 | 36942 ft | 507 kts | 31° |
| 2026-04-25 14:06 | 38.45596 | -77.29206 | 36965 ft | 516 kts | 42° |
| 2026-04-25 14:06 | 38.50375 | -77.22365 | 36962 ft | 518 kts | 44° |
| 2026-04-25 14:07 | 38.55110 | -77.15415 | 36955 ft | 516 kts | 44° |
| 2026-04-25 14:07 | 38.59840 | -77.08510 | 36946 ft | 516 kts | 43° |
| 2026-04-25 14:08 | 38.64568 | -77.01642 | 36941 ft | 516 kts | 43° |
| 2026-04-25 14:08 | 38.69314 | -76.94747 | 36954 ft | 516 kts | 43° |
| 2026-04-25 14:09 | 38.74033 | -76.87876 | 36955 ft | 516 kts | 43° |
| 2026-04-25 14:09 | 38.78781 | -76.80950 | 36970 ft | 515 kts | 43° |
| 2026-04-25 14:10 | 38.83499 | -76.74046 | 36979 ft | 514 kts | 43° |
| 2026-04-25 14:10 | 38.88191 | -76.67160 | 36967 ft | 514 kts | 43° |
| 2026-04-25 14:11 | 38.92897 | -76.60242 | 36990 ft | 514 kts | 43° |
| 2026-04-25 14:11 | 38.97582 | -76.53341 | 36989 ft | 514 kts | 43° |
| 2026-04-25 14:12 | 39.02297 | -76.46381 | 36994 ft | 513 kts | 43° |
| 2026-04-25 14:12 | 39.06953 | -76.39491 | 36976 ft | 512 kts | 43° |
| 2026-04-25 14:13 | 39.11631 | -76.32556 | 36996 ft | 512 kts | 43° |
| 2026-04-25 14:13 | 39.16281 | -76.25646 | 37000 ft | 512 kts | 43° |
| 2026-04-25 14:14 | 39.20166 | -76.19863 | 37001 ft | 512 kts | 43° |
| 2026-04-25 14:14 | 39.24831 | -76.12901 | 37005 ft | 512 kts | 43° |
| 2026-04-25 14:15 | 39.29460 | -76.05988 | 37002 ft | 510 kts | 43° |
| 2026-04-25 14:15 | 39.34097 | -75.99036 | 36998 ft | 509 kts | 43° |
| 2026-04-25 14:16 | 39.38698 | -75.92123 | 37000 ft | 509 kts | 43° |
| 2026-04-25 14:16 | 39.43329 | -75.85152 | 37011 ft | 509 kts | 43° |
| 2026-04-25 14:17 | 39.47949 | -75.78183 | 37032 ft | 509 kts | 43° |
| 2026-04-25 14:17 | 39.52524 | -75.71264 | 37031 ft | 508 kts | 43° |
| 2026-04-25 14:18 | 39.57122 | -75.64298 | 37044 ft | 507 kts | 43° |
| 2026-04-25 14:18 | 39.61707 | -75.57336 | 37048 ft | 508 kts | 43° |
| 2026-04-25 14:19 | 39.66261 | -75.50407 | 37047 ft | 507 kts | 43° |
| 2026-04-25 14:19 | 39.70594 | -75.43073 | 37043 ft | 512 kts | 48° |
| 2026-04-25 14:20 | 39.74673 | -75.35539 | 37043 ft | 511 kts | 49° |
| 2026-04-25 14:20 | 39.78800 | -75.27992 | 37053 ft | 510 kts | 48° |
| 2026-04-25 14:21 | 39.82948 | -75.20533 | 37071 ft | 510 kts | 47° |
| 2026-04-25 14:21 | 39.87128 | -75.13051 | 37072 ft | 510 kts | 47° |
| 2026-04-25 14:22 | 39.91280 | -75.05601 | 37076 ft | 510 kts | 47° |
| 2026-04-25 14:22 | 39.95447 | -74.98100 | 37069 ft | 508 kts | 47° |
| 2026-04-25 14:23 | 39.99522 | -74.90622 | 37064 ft | 510 kts | 50° |
| 2026-04-25 14:23 | 40.03437 | -74.82873 | 37062 ft | 511 kts | 51° |
| 2026-04-25 14:24 | 40.07326 | -74.75089 | 37065 ft | 510 kts | 50° |
| 2026-04-25 14:24 | 40.11217 | -74.67369 | 37078 ft | 510 kts | 50° |
| 2026-04-25 14:25 | 40.15140 | -74.59618 | 37070 ft | 510 kts | 50° |
| 2026-04-25 14:25 | 40.19085 | -74.51988 | 37066 ft | 506 kts | 45° |
| 2026-04-25 14:26 | 40.23966 | -74.45562 | 37070 ft | 493 kts | 34° |
| 2026-04-25 14:26 | 40.29243 | -74.39807 | 37101 ft | 492 kts | 32° |
| 2026-04-25 14:27 | 40.34531 | -74.34199 | 37099 ft | 490 kts | 32° |
| 2026-04-25 14:27 | 40.39834 | -74.28554 | 37106 ft | 489 kts | 32° |
| 2026-04-25 14:28 | 40.45108 | -74.22901 | 37107 ft | 489 kts | 32° |
| 2026-04-25 14:28 | 40.50357 | -74.17249 | 37116 ft | 488 kts | 32° |
| 2026-04-25 14:29 | 40.55609 | -74.11579 | 37111 ft | 488 kts | 32° |
| 2026-04-25 14:29 | 40.60846 | -74.05925 | 37137 ft | 488 kts | 32° |
| 2026-04-25 14:30 | 40.66100 | -74.00227 | 37164 ft | 488 kts | 32° |
| 2026-04-25 14:30 | 40.73914 | -73.91728 | 37109 ft | 484 kts | 32° |
| 2026-04-25 14:31 | 40.79111 | -73.86068 | 37108 ft | 484 kts | 32° |
| 2026-04-25 14:31 | 40.84327 | -73.80506 | 37127 ft | 480 kts | 28° |
| 2026-04-25 14:32 | 40.90129 | -73.76476 | 37106 ft | 465 kts | 15° |
| 2026-04-25 14:32 | 40.96149 | -73.73464 | 37109 ft | 464 kts | 13° |
| 2026-04-25 14:33 | 41.02237 | -73.70591 | 37109 ft | 463 kts | 13° |
| 2026-04-25 14:33 | 41.08317 | -73.67719 | 37110 ft | 464 kts | 13° |
| 2026-04-25 14:34 | 41.14364 | -73.64831 | 37120 ft | 464 kts | 13° |
| 2026-04-25 14:34 | 41.20430 | -73.61915 | 37110 ft | 463 kts | 13° |
| 2026-04-25 14:35 | 41.26463 | -73.59062 | 37124 ft | 459 kts | 10° |
| 2026-04-25 14:35 | 41.32683 | -73.57503 | 37129 ft | 451 kts | 1° |
| 2026-04-25 14:36 | 41.38888 | -73.56588 | 37127 ft | 450 kts | 0° |
| 2026-04-25 14:36 | 41.45122 | -73.55773 | 37129 ft | 449 kts | 360° |
| 2026-04-25 14:37 | 41.51324 | -73.54959 | 37104 ft | 449 kts | 0° |
| 2026-04-25 14:37 | 41.57565 | -73.54121 | 37105 ft | 449 kts | 0° |
| 2026-04-25 14:38 | 41.63744 | -73.53281 | 37099 ft | 449 kts | 0° |
| 2026-04-25 14:38 | 41.69981 | -73.52434 | 37098 ft | 449 kts | 0° |
| 2026-04-25 14:39 | 41.76174 | -73.51584 | 37099 ft | 449 kts | 0° |
| 2026-04-25 14:39 | 41.82414 | -73.50727 | 37123 ft | 449 kts | 0° |
| 2026-04-25 14:40 | 41.88600 | -73.49879 | 37101 ft | 448 kts | 0° |
| 2026-04-25 14:40 | 41.94791 | -73.49030 | 37095 ft | 448 kts | 0° |
| 2026-04-25 14:41 | 42.01010 | -73.48174 | 37087 ft | 449 kts | 0° |
| 2026-04-25 14:41 | 42.07233 | -73.47316 | 37074 ft | 448 kts | 0° |
| 2026-04-25 14:42 | 42.11357 | -73.46747 | 37079 ft | 448 kts | 0° |
| 2026-04-25 14:42 | 42.19639 | -73.45601 | 37082 ft | 448 kts | 0° |
| 2026-04-25 14:43 | 42.25821 | -73.44743 | 37078 ft | 448 kts | 0° |
| 2026-04-25 14:43 | 42.32018 | -73.43882 | 37081 ft | 449 kts | 0° |
| 2026-04-25 14:44 | 42.38238 | -73.43016 | 37081 ft | 448 kts | 0° |
| 2026-04-25 14:44 | 42.44418 | -73.42154 | 37084 ft | 448 kts | 0° |
| 2026-04-25 14:45 | 42.50638 | -73.41284 | 37081 ft | 448 kts | 0° |
| 2026-04-25 14:45 | 42.56839 | -73.40415 | 37081 ft | 448 kts | 0° |
| 2026-04-25 14:46 | 42.63068 | -73.39540 | 37102 ft | 448 kts | 0° |
| 2026-04-25 14:46 | 42.69245 | -73.38671 | 37096 ft | 448 kts | 0° |
| 2026-04-25 14:47 | 42.73398 | -73.38087 | 37097 ft | 447 kts | 0° |
| 2026-04-25 14:47 | 42.81669 | -73.36921 | 37115 ft | 448 kts | 360° |
| 2026-04-25 14:48 | 42.87857 | -73.36045 | 37095 ft | 448 kts | 360° |
| 2026-04-25 14:48 | 42.94073 | -73.35112 | 37087 ft | 451 kts | 3° |
| 2026-04-25 14:49 | 43.00208 | -73.32913 | 37106 ft | 456 kts | 7° |
| 2026-04-25 14:49 | 43.06374 | -73.31706 | 37090 ft | 447 kts | 358° |
| 2026-04-25 14:50 | 43.12579 | -73.31127 | 37092 ft | 447 kts | 358° |
| 2026-04-25 14:50 | 43.18794 | -73.30609 | 37099 ft | 446 kts | 357° |
| 2026-04-25 14:51 | 43.24971 | -73.30103 | 37109 ft | 447 kts | 357° |
| 2026-04-25 14:51 | 43.31189 | -73.29581 | 37107 ft | 444 kts | 357° |
| 2026-04-25 14:52 | 43.37312 | -73.29069 | 37099 ft | 443 kts | 357° |
| 2026-04-25 14:52 | 43.41428 | -73.28724 | 37109 ft | 442 kts | 357° |
| 2026-04-25 14:53 | 43.49598 | -73.28039 | 37103 ft | 442 kts | 357° |
| 2026-04-25 14:53 | 43.55735 | -73.27520 | 37106 ft | 442 kts | 357° |
| 2026-04-25 14:54 | 43.61891 | -73.26999 | 37105 ft | 442 kts | 357° |
| 2026-04-25 14:54 | 43.68007 | -73.26480 | 37107 ft | 442 kts | 357° |
| 2026-04-25 14:55 | 43.74159 | -73.25958 | 37103 ft | 442 kts | 357° |
| 2026-04-25 14:55 | 43.80314 | -73.25434 | 37107 ft | 442 kts | 357° |
| 2026-04-25 14:56 | 43.86436 | -73.24911 | 37091 ft | 443 kts | 357° |
| 2026-04-25 14:56 | 43.92636 | -73.24372 | 37104 ft | 447 kts | 358° |
| 2026-04-25 14:57 | 43.98762 | -73.22557 | 37110 ft | 460 kts | 13° |
| 2026-04-25 14:57 | 44.04449 | -73.18153 | 37104 ft | 478 kts | 32° |
| 2026-04-25 14:58 | 44.08399 | -73.12596 | 37105 ft | 492 kts | 44° |
| 2026-04-25 14:58 | 44.13059 | -73.03506 | 37116 ft | 497 kts | 49° |
| 2026-04-25 14:59 | 44.16235 | -72.96780 | 37132 ft | 495 kts | 49° |
| 2026-04-25 14:59 | 44.20036 | -72.88858 | 37139 ft | 494 kts | 48° |
| 2026-04-25 15:00 | 44.23905 | -72.80952 | 37150 ft | 493 kts | 47° |
| 2026-04-25 15:00 | 44.27789 | -72.73054 | 37164 ft | 493 kts | 47° |
| 2026-04-25 15:01 | 44.31645 | -72.65194 | 37142 ft | 492 kts | 47° |
| 2026-04-25 15:01 | 44.35501 | -72.57309 | 37134 ft | 492 kts | 47° |
| 2026-04-25 15:02 | 44.39366 | -72.49374 | 37135 ft | 491 kts | 47° |
| 2026-04-25 15:02 | 44.43193 | -72.41493 | 37125 ft | 491 kts | 47° |
| 2026-04-25 15:03 | 44.47038 | -72.33557 | 37142 ft | 492 kts | 47° |
| 2026-04-25 15:03 | 44.50806 | -72.25759 | 37137 ft | 492 kts | 47° |
| 2026-04-25 15:04 | 44.54694 | -72.17692 | 37127 ft | 492 kts | 47° |
| 2026-04-25 15:04 | 44.58498 | -72.09774 | 37138 ft | 492 kts | 47° |
| 2026-04-25 15:05 | 44.62320 | -72.01797 | 37137 ft | 491 kts | 47° |
| 2026-04-25 15:06 | 44.68022 | -71.89856 | 37132 ft | 491 kts | 47° |
| 2026-04-25 15:06 | 44.71824 | -71.81866 | 37152 ft | 491 kts | 47° |
| 2026-04-25 15:07 | 44.75614 | -71.73879 | 37136 ft | 491 kts | 48° |
| 2026-04-25 15:07 | 44.79412 | -71.65856 | 37134 ft | 491 kts | 48° |
| 2026-04-25 15:08 | 44.83176 | -71.57879 | 37149 ft | 491 kts | 48° |
| 2026-04-25 15:08 | 44.86960 | -71.49836 | 37143 ft | 491 kts | 48° |
| 2026-04-25 15:09 | 44.90721 | -71.41817 | 37144 ft | 491 kts | 48° |
| 2026-04-25 15:09 | 44.96387 | -71.29700 | 37151 ft | 490 kts | 49° |
| 2026-04-25 15:10 | 45.00115 | -71.21704 | 37149 ft | 490 kts | 49° |
| 2026-04-25 15:10 | 45.03860 | -71.13649 | 37251 ft | 489 kts | 49° |
| 2026-04-25 15:11 | 45.05728 | -71.09616 | 37513 ft | 487 kts | 50° |
| 2026-04-25 15:11 | 45.07583 | -71.05606 | 37792 ft | 485 kts | 50° |
| 2026-04-25 15:11 | 45.09433 | -71.01647 | 37978 ft | 483 kts | 48° |
| 2026-04-25 15:12 | 45.13702 | -70.94437 | 38311 ft | 475 kts | 41° |
| 2026-04-25 15:12 | 45.15937 | -70.90965 | 38457 ft | 475 kts | 41° |
| 2026-04-25 15:12 | 45.18156 | -70.87571 | 38604 ft | 474 kts | 40° |
| 2026-04-25 15:12 | 45.18912 | -70.86419 | 38667 ft | 474 kts | 40° |
| 2026-04-25 15:13 | 45.22663 | -70.80716 | 38885 ft | 474 kts | 41° |
| 2026-04-25 15:13 | 45.27142 | -70.73878 | 39103 ft | 475 kts | 41° |
| 2026-04-25 15:14 | 45.31665 | -70.66937 | 39167 ft | 479 kts | 41° |
| 2026-04-25 15:14 | 45.36156 | -70.60011 | 39145 ft | 478 kts | 41° |
| 2026-04-25 15:15 | 45.40674 | -70.53026 | 39137 ft | 478 kts | 42° |
| 2026-04-25 15:15 | 45.45150 | -70.46089 | 39136 ft | 478 kts | 41° |
| 2026-04-25 15:16 | 45.49650 | -70.39100 | 39143 ft | 478 kts | 42° |
| 2026-04-25 15:16 | 45.56371 | -70.28626 | 39133 ft | 478 kts | 42° |
| 2026-04-25 15:17 | 45.63087 | -70.18121 | 39132 ft | 478 kts | 42° |
| 2026-04-25 15:18 | 45.67579 | -70.11074 | 39134 ft | 478 kts | 43° |
| 2026-04-25 15:18 | 45.74305 | -70.00485 | 39131 ft | 479 kts | 43° |
| 2026-04-25 15:19 | 45.78030 | -69.94604 | 39128 ft | 479 kts | 43° |
| 2026-04-25 15:19 | 45.83258 | -69.86327 | 39128 ft | 481 kts | 43° |
| 2026-04-25 15:20 | 45.87750 | -69.79195 | 39126 ft | 481 kts | 43° |
| 2026-04-25 15:20 | 45.92220 | -69.72081 | 39121 ft | 482 kts | 44° |
| 2026-04-25 15:21 | 45.96713 | -69.64912 | 39132 ft | 482 kts | 44° |
| 2026-04-25 15:21 | 46.01190 | -69.57749 | 39124 ft | 481 kts | 44° |
| 2026-04-25 15:22 | 46.05637 | -69.50614 | 39124 ft | 480 kts | 44° |
| 2026-04-25 15:22 | 46.10103 | -69.43431 | 39124 ft | 481 kts | 44° |
| 2026-04-25 15:23 | 46.14547 | -69.36265 | 39129 ft | 481 kts | 44° |
| 2026-04-25 15:23 | 46.18990 | -69.29081 | 39133 ft | 481 kts | 44° |
| 2026-04-25 15:24 | 46.23449 | -69.21852 | 39128 ft | 481 kts | 44° |
| 2026-04-25 15:24 | 46.27159 | -69.15823 | 39130 ft | 481 kts | 44° |
| 2026-04-25 15:25 | 46.32335 | -69.07390 | 39123 ft | 483 kts | 45° |
| 2026-04-25 15:25 | 46.36808 | -69.00083 | 39131 ft | 484 kts | 45° |
| 2026-04-25 15:26 | 46.41252 | -68.92801 | 39115 ft | 485 kts | 45° |
| 2026-04-25 15:26 | 46.45729 | -68.85445 | 39125 ft | 485 kts | 45° |
| 2026-04-25 15:27 | 46.50207 | -68.78070 | 39114 ft | 487 kts | 45° |
| 2026-04-25 15:28 | 46.56901 | -68.67004 | 39117 ft | 487 kts | 45° |
| 2026-04-25 15:28 | 46.61352 | -68.59622 | 39118 ft | 487 kts | 45° |
| 2026-04-25 15:29 | 46.65812 | -68.52201 | 39115 ft | 485 kts | 46° |
| 2026-04-25 15:29 | 46.70221 | -68.44849 | 39113 ft | 484 kts | 46° |
| 2026-04-25 15:30 | 46.74661 | -68.37428 | 39129 ft | 484 kts | 46° |
| 2026-04-25 15:30 | 46.79049 | -68.30074 | 39109 ft | 482 kts | 46° |
| 2026-04-25 15:31 | 46.83458 | -68.22661 | 39093 ft | 482 kts | 46° |
| 2026-04-25 15:31 | 46.87854 | -68.15249 | 39082 ft | 482 kts | 46° |
| 2026-04-25 15:32 | 46.92220 | -68.07869 | 39083 ft | 482 kts | 46° |
| 2026-04-25 15:32 | 46.96605 | -68.00436 | 39083 ft | 480 kts | 46° |
| 2026-04-25 15:33 | 47.03110 | -67.89372 | 39088 ft | 478 kts | 46° |
| 2026-04-25 15:33 | 47.07437 | -67.81989 | 39091 ft | 478 kts | 46° |
| 2026-04-25 15:34 | 47.10343 | -67.77019 | 39089 ft | 478 kts | 47° |